Time;durP1;ratioP1;P1;durP2;ratioP2;P2;SDS_P1;SDS_P2;PMS_P1;PMS_P2;Temp;Humidity;BMP_temperature;BMP_pressure;BME280_temperature;BME280_humidity;BME280_pressure;Samples;Min_cycle;Max_cycle;Signal;HPM_P1;HPM_P2
2023/04/07 00:00:25;;;;;;;9.73;6.55;;;10.20;99.90;;;;;;5114382;28;20643;-68
2023/04/07 00:02:51;;;;;;;8.68;6.68;;;10.00;99.90;;;;;;5113961;28;20038;-68
2023/04/07 00:05:17;;;;;;;8.50;5.85;;;9.90;99.90;;;;;;5114301;28;20438;-67
2023/04/07 00:07:43;;;;;;;8.43;5.40;;;9.80;99.90;;;;;;5114042;28;20384;-65
2023/04/07 00:10:09;;;;;;;7.68;5.20;;;9.80;99.90;;;;;;5114066;28;20035;-66
2023/04/07 00:12:35;;;;;;;10.25;5.50;;;9.70;99.90;;;;;;5114115;28;20020;-66
2023/04/07 00:15:01;;;;;;;8.05;5.15;;;9.70;99.90;;;;;;5113950;28;20031;-66
2023/04/07 00:17:26;;;;;;;6.75;5.55;;;9.70;99.90;;;;;;5114327;28;20037;-67
2023/04/07 00:19:52;;;;;;;8.63;6.07;;;9.70;99.90;;;;;;5113922;28;20137;-67
2023/04/07 00:22:18;;;;;;;6.47;5.60;;;9.60;99.90;;;;;;5113392;28;20027;-67
2023/04/07 00:24:43;;;;;;;6.10;5.50;;;9.50;99.90;;;;;;5113522;28;20039;-67
2023/04/07 00:27:10;;;;;;;8.20;5.55;;;9.50;99.90;;;;;;5113586;28;20039;-66
2023/04/07 00:29:35;;;;;;;8.63;5.50;;;9.40;99.90;;;;;;5113635;28;20447;-67
2023/04/07 00:32:01;;;;;;;8.05;5.85;;;9.30;99.90;;;;;;5113854;28;20066;-67
2023/04/07 00:34:27;;;;;;;7.82;6.15;;;9.30;99.90;;;;;;5113476;28;20035;-67
2023/04/07 00:36:52;;;;;;;7.07;5.95;;;9.30;99.90;;;;;;5113319;28;20464;-66
2023/04/07 00:39:18;;;;;;;7.80;5.78;;;9.30;99.90;;;;;;5113484;28;20490;-67
2023/04/07 00:41:45;;;;;;;7.75;6.53;;;9.20;99.90;;;;;;5113835;28;20027;-66
2023/04/07 00:44:11;;;;;;;7.28;6.00;;;9.10;99.90;;;;;;5113344;28;20076;-67
2023/04/07 00:46:36;;;;;;;8.43;6.63;;;9.10;99.90;;;;;;5113009;28;20032;-67
2023/04/07 00:49:02;;;;;;;9.50;6.70;;;9.10;99.90;;;;;;5112754;28;20038;-68
2023/04/07 00:51:28;;;;;;;9.00;6.28;;;9.10;99.90;;;;;;5113270;28;20418;-66
2023/04/07 00:53:54;;;;;;;10.50;6.90;;;9.00;99.90;;;;;;5113145;28;20035;-66
2023/04/07 00:56:20;;;;;;;9.73;7.25;;;9.00;99.90;;;;;;5113146;28;20039;-67
2023/04/07 00:58:46;;;;;;;10.35;7.35;;;8.90;99.90;;;;;;5113008;28;20020;-68
2023/04/07 01:01:21;;;;;;;10.02;7.35;;;8.90;99.90;;;;;;5113327;28;20031;-67
2023/04/07 01:04:01;;;;;;;8.05;6.43;;;8.90;99.90;;;;;;5112910;28;20024;-67
2023/04/07 01:06:32;;;;;;;9.18;6.20;;;8.90;99.90;;;;;;5113005;28;20036;-67
2023/04/07 01:09:17;;;;;;;8.57;6.57;;;8.90;99.90;;;;;;5112990;28;20023;-67
2023/04/07 01:11:47;;;;;;;9.45;6.15;;;8.70;99.90;;;;;;5112899;28;20040;-67
2023/04/07 01:14:14;;;;;;;8.50;6.18;;;8.70;99.90;;;;;;5112912;28;20036;-65
2023/04/07 01:16:49;;;;;;;7.10;6.00;;;8.70;99.90;;;;;;5113224;28;20088;-67
2023/04/07 01:19:38;;;;;;;7.38;6.25;;;8.70;99.90;;;;;;5112758;28;20044;-67
2023/04/07 01:22:16;;;;;;;7.95;6.65;;;8.60;99.90;;;;;;5112887;28;20031;-66
2023/04/07 01:25:10;;;;;;;9.18;6.30;;;8.60;99.90;;;;;;5112610;28;20403;-67
2023/04/07 01:27:39;;;;;;;8.80;5.80;;;8.60;99.90;;;;;;5112580;28;20542;-67
2023/04/07 01:30:11;;;;;;;6.30;5.70;;;8.50;99.90;;;;;;5112775;28;20024;-67
2023/04/07 01:32:40;;;;;;;7.53;5.50;;;8.50;99.90;;;;;;5112525;28;20400;-67
2023/04/07 01:35:11;;;;;;;7.10;5.32;;;8.50;99.90;;;;;;5112462;28;20076;-67
2023/04/07 01:37:37;;;;;;;9.02;5.32;;;8.50;99.90;;;;;;5112693;28;20484;-65
2023/04/07 01:40:06;;;;;;;8.75;5.53;;;8.50;99.90;;;;;;5113045;28;20048;-67
2023/04/07 01:42:32;;;;;;;8.38;5.57;;;8.50;99.90;;;;;;5112763;28;20417;-67
2023/04/07 01:45:00;;;;;;;7.18;5.53;;;8.40;99.90;;;;;;5112662;28;20023;-67
2023/04/07 01:47:29;;;;;;;6.15;5.45;;;8.40;99.90;;;;;;5112863;28;20040;-67
2023/04/07 01:49:57;;;;;;;6.82;5.40;;;8.30;99.90;;;;;;5112243;28;20020;-68
2023/04/07 01:52:25;;;;;;;6.32;4.97;;;8.40;99.90;;;;;;5112449;28;20032;-68
2023/04/07 01:54:52;;;;;;;7.90;5.50;;;8.30;99.90;;;;;;5111937;28;20026;-68
2023/04/07 01:57:18;;;;;;;6.40;5.05;;;8.30;99.90;;;;;;5112363;28;20492;-68
2023/04/07 01:59:46;;;;;;;7.03;5.60;;;8.20;99.90;;;;;;5115621;28;20023;-68
2023/04/07 02:02:11;;;;;;;7.85;5.65;;;8.20;99.90;;;;;;5116633;28;20024;-68
2023/04/07 02:04:51;;;;;;;8.18;6.00;;;8.20;99.90;;;;;;5116346;28;20088;-68
2023/04/07 02:07:36;;;;;;;9.20;5.85;;;8.10;99.90;;;;;;5116828;28;20126;-68
2023/04/07 02:10:06;;;;;;;7.72;6.03;;;8.10;99.90;;;;;;5116377;28;20031;-67
2023/04/07 02:12:33;;;;;;;8.45;6.10;;;8.00;99.90;;;;;;5116919;28;20023;-67
2023/04/07 02:15:00;;;;;;;11.35;6.75;;;8.00;99.90;;;;;;5116498;28;20024;-68
2023/04/07 02:17:28;;;;;;;11.75;6.78;;;8.00;99.90;;;;;;5116109;28;20030;-68
2023/04/07 02:19:56;;;;;;;8.45;5.47;;;8.00;99.90;;;;;;5116310;28;20076;-67
2023/04/07 02:22:22;;;;;;;10.50;6.43;;;7.90;99.90;;;;;;5116171;28;20024;-67
2023/04/07 02:24:48;;;;;;;9.43;5.93;;;7.90;99.90;;;;;;5115918;28;20496;-68
2023/04/07 02:27:13;;;;;;;11.48;6.13;;;7.90;99.90;;;;;;5115841;28;20097;-68
2023/04/07 02:29:39;;;;;;;7.03;6.05;;;7.90;99.90;;;;;;5115900;28;20028;-68
2023/04/07 02:32:05;;;;;;;8.23;6.43;;;8.00;99.90;;;;;;5115567;28;20032;-68
2023/04/07 02:34:31;;;;;;;8.27;6.20;;;8.00;99.90;;;;;;5097693;28;20034;-68
2023/04/07 02:36:56;;;;;;;9.05;6.70;;;8.00;99.90;;;;;;5115905;28;20027;-68
2023/04/07 02:39:22;;;;;;;10.55;7.60;;;8.00;99.90;;;;;;5115894;28;20035;-68
2023/04/07 02:41:48;;;;;;;9.05;7.13;;;8.00;99.90;;;;;;5116152;28;20034;-68
2023/04/07 02:44:13;;;;;;;10.48;7.55;;;8.10;99.90;;;;;;5115626;28;20055;-68
2023/04/07 02:46:40;;;;;;;10.23;7.40;;;8.10;99.90;;;;;;5115404;28;20484;-68
2023/04/07 02:49:05;;;;;;;8.90;6.95;;;8.20;99.90;;;;;;5115668;28;20031;-68
2023/04/07 02:51:31;;;;;;;10.52;7.78;;;8.20;99.90;;;;;;5115715;28;20038;-68
2023/04/07 02:53:57;;;;;;;7.93;6.63;;;8.30;99.90;;;;;;5115899;28;20024;-68
2023/04/07 02:56:22;;;;;;;13.70;7.47;;;8.40;99.90;;;;;;5115751;28;20111;-68
2023/04/07 02:58:48;;;;;;;10.65;7.60;;;8.30;99.90;;;;;;5115383;28;20027;-68
2023/04/07 03:01:14;;;;;;;9.77;7.45;;;8.30;99.90;;;;;;5115068;28;20062;-68
2023/04/07 03:03:41;;;;;;;9.50;7.47;;;8.40;99.90;;;;;;5115476;28;20019;-68
2023/04/07 03:06:07;;;;;;;9.55;7.72;;;8.40;99.90;;;;;;5115690;28;20135;-69
2023/04/07 03:08:32;;;;;;;9.90;7.88;;;8.50;99.90;;;;;;5115265;28;20531;-68
2023/04/07 03:10:58;;;;;;;8.70;7.07;;;8.50;99.90;;;;;;5114410;28;20046;-68
2023/04/07 03:13:24;;;;;;;12.20;7.68;;;8.50;99.90;;;;;;5115378;28;20028;-68
2023/04/07 03:15:50;;;;;;;9.32;7.53;;;8.50;99.90;;;;;;5114936;28;20020;-68
2023/04/07 03:18:15;;;;;;;10.52;7.82;;;8.50;99.90;;;;;;5096871;28;20578;-68
2023/04/07 03:20:41;;;;;;;10.07;7.65;;;8.50;99.90;;;;;;5114948;28;20047;-68
2023/04/07 03:23:07;;;;;;;10.48;8.20;;;8.50;99.90;;;;;;5115191;28;20479;-68
2023/04/07 03:25:33;;;;;;;10.35;8.02;;;8.50;99.90;;;;;;5115169;28;20036;-69
2023/04/07 03:27:58;;;;;;;9.13;6.90;;;8.50;99.90;;;;;;5114984;28;20035;-68
2023/04/07 03:30:24;;;;;;;11.77;7.00;;;8.60;99.90;;;;;;5114634;28;20031;-68
2023/04/07 03:32:50;;;;;;;11.48;7.35;;;8.60;99.90;;;;;;5114803;28;20069;-68
2023/04/07 03:35:16;;;;;;;10.88;7.25;;;8.60;99.90;;;;;;5114947;28;20024;-68
2023/04/07 03:37:41;;;;;;;11.55;6.78;;;8.60;99.90;;;;;;5114612;28;20050;-68
2023/04/07 03:40:07;;;;;;;9.35;7.20;;;8.70;99.90;;;;;;5115125;28;20043;-66
2023/04/07 03:42:33;;;;;;;10.57;7.03;;;8.70;99.90;;;;;;5114688;28;20468;-68
2023/04/07 03:44:59;;;;;;;10.18;6.82;;;8.70;99.90;;;;;;5114290;28;20031;-68
2023/04/07 03:47:25;;;;;;;10.70;7.15;;;8.70;99.90;;;;;;5114517;28;20530;-68
2023/04/07 03:49:50;;;;;;;8.70;6.93;;;8.70;99.90;;;;;;5114608;28;20047;-68
2023/04/07 03:52:16;;;;;;;9.70;6.93;;;8.70;99.90;;;;;;5114707;28;20031;-68
2023/04/07 03:54:42;;;;;;;8.00;6.57;;;8.60;99.90;;;;;;5114492;28;20026;-68
2023/04/07 03:57:08;;;;;;;11.60;6.60;;;8.50;99.90;;;;;;5114221;28;20028;-68
2023/04/07 03:59:34;;;;;;;10.02;5.97;;;8.50;99.90;;;;;;5114199;28;20034;-68
2023/04/07 04:02:00;;;;;;;8.07;5.95;;;8.40;99.90;;;;;;5114325;28;20519;-68
2023/04/07 04:04:25;;;;;;;8.05;5.57;;;8.40;99.90;;;;;;5114283;28;20028;-68
2023/04/07 04:06:51;;;;;;;7.82;5.53;;;8.30;99.90;;;;;;5114173;28;20038;-67
2023/04/07 04:09:17;;;;;;;12.18;6.07;;;8.30;99.90;;;;;;5114183;28;20468;-68
2023/04/07 04:11:42;;;;;;;11.10;6.00;;;8.20;99.90;;;;;;5113968;28;20102;-67
2023/04/07 04:14:08;;;;;;;8.30;5.97;;;8.20;99.90;;;;;;5113859;28;20472;-68
2023/04/07 04:16:36;;;;;;;10.02;5.50;;;8.30;99.90;;;;;;5114021;28;20437;-68
2023/04/07 04:19:02;;;;;;;10.35;5.25;;;8.40;99.90;;;;;;5114306;28;20031;-67
2023/04/07 04:21:28;;;;;;;11.27;5.60;;;8.40;99.90;;;;;;5113777;28;20023;-68
2023/04/07 04:23:53;;;;;;;10.65;5.57;;;8.20;99.90;;;;;;5113981;28;20032;-66
2023/04/07 04:26:24;;;;;;;9.73;5.45;;;8.10;99.90;;;;;;5113401;28;20131;-68
2023/04/07 04:28:50;;;;;;;7.18;4.90;;;8.00;99.90;;;;;;5113219;28;20534;-68
2023/04/07 04:31:16;;;;;;;10.68;5.57;;;8.10;99.90;;;;;;5113787;28;20027;-68
2023/04/07 04:33:41;;;;;;;8.57;5.07;;;8.10;99.90;;;;;;5113561;28;20037;-68
2023/04/07 04:36:07;;;;;;;8.85;5.30;;;8.10;99.90;;;;;;5113932;28;20047;-68
2023/04/07 04:38:33;;;;;;;10.30;6.07;;;8.00;99.90;;;;;;5113625;28;20031;-68
2023/04/07 04:40:58;;;;;;;7.55;5.20;;;8.00;99.90;;;;;;5113512;28;20038;-68
2023/04/07 04:43:24;;;;;;;9.57;5.45;;;7.90;99.90;;;;;;5113147;28;20019;-69
2023/04/07 04:45:50;;;;;;;10.10;5.82;;;7.90;99.90;;;;;;5113390;28;20080;-68
2023/04/07 04:48:16;;;;;;;10.60;7.35;;;7.80;99.90;;;;;;5113766;28;20032;-68
2023/04/07 04:50:42;;;;;;;10.15;7.82;;;7.80;99.90;;;;;;5113355;28;20132;-68
2023/04/07 04:53:09;;;;;;;11.93;7.43;;;7.80;99.90;;;;;;5113389;28;20027;-68
2023/04/07 04:55:35;;;;;;;13.68;7.93;;;7.70;99.90;;;;;;5113453;28;20095;-68
2023/04/07 04:58:01;;;;;;;12.40;7.93;;;7.80;99.90;;;;;;5112532;28;20506;-68
2023/04/07 05:00:26;;;;;;;10.27;8.15;;;7.80;99.90;;;;;;5113178;28;20532;-68
2023/04/07 05:02:52;;;;;;;15.32;9.10;;;7.70;99.90;;;;;;5113178;28;20023;-68
2023/04/07 05:05:18;;;;;;;13.48;10.60;;;7.80;99.90;;;;;;5113395;28;20055;-69
2023/04/07 05:07:44;;;;;;;14.80;11.02;;;7.80;99.90;;;;;;5113270;28;20035;-69
2023/04/07 05:10:10;;;;;;;16.20;12.35;;;7.80;99.90;;;;;;5112851;28;20537;-68
2023/04/07 05:12:35;;;;;;;15.45;12.00;;;7.80;99.90;;;;;;5112719;28;20023;-68
2023/04/07 05:15:01;;;;;;;14.45;12.30;;;7.80;99.90;;;;;;5112990;28;20475;-68
2023/04/07 05:17:27;;;;;;;15.00;12.48;;;7.80;99.90;;;;;;5113011;28;20020;-68
2023/04/07 05:19:52;;;;;;;14.70;11.95;;;7.90;99.90;;;;;;5113245;28;20028;-68
2023/04/07 05:22:18;;;;;;;16.73;11.68;;;7.90;99.90;;;;;;5112813;28;20028;-68
2023/04/07 05:24:44;;;;;;;17.33;12.38;;;8.00;99.90;;;;;;5112541;28;20050;-68
2023/04/07 05:27:09;;;;;;;16.33;12.73;;;8.10;99.90;;;;;;5112848;28;20032;-68
2023/04/07 05:29:35;;;;;;;17.70;14.07;;;8.10;99.90;;;;;;5112624;28;20531;-68
2023/04/07 05:32:01;;;;;;;18.95;14.10;;;8.00;99.90;;;;;;5112808;28;20028;-68
2023/04/07 05:34:27;;;;;;;17.05;13.63;;;8.00;99.90;;;;;;5112160;28;20404;-68
2023/04/07 05:36:53;;;;;;;16.25;14.05;;;8.10;99.90;;;;;;5112673;28;20088;-67
2023/04/07 05:39:18;;;;;;;16.77;14.02;;;8.10;99.90;;;;;;5112488;28;20464;-68
2023/04/07 05:41:44;;;;;;;17.13;14.63;;;8.20;99.90;;;;;;5112145;28;20070;-73
2023/04/07 05:44:10;;;;;;;17.65;13.40;;;8.20;99.90;;;;;;5112641;28;20460;-69
2023/04/07 05:46:36;;;;;;;17.88;12.68;;;8.30;99.90;;;;;;5112491;28;20388;-70
2023/04/07 05:49:01;;;;;;;16.10;13.15;;;8.40;99.90;;;;;;5112617;28;20034;-69
2023/04/07 05:51:27;;;;;;;15.68;12.70;;;8.40;99.90;;;;;;5112715;28;20027;-70
2023/04/07 05:53:53;;;;;;;15.60;12.27;;;8.50;99.90;;;;;;5112475;28;20099;-70
2023/04/07 05:56:18;;;;;;;15.38;11.65;;;8.50;99.90;;;;;;5112198;28;20161;-70
2023/04/07 05:58:45;;;;;;;14.48;12.55;;;8.60;99.90;;;;;;5093931;28;20396;-70
2023/04/07 06:01:10;;;;;;;17.23;14.82;;;8.50;99.90;;;;;;5112703;28;20027;-70
2023/04/07 06:03:36;;;;;;;17.20;13.15;;;8.50;99.90;;;;;;5112452;28;20467;-69
2023/04/07 06:06:01;;;;;;;16.40;13.75;;;8.50;99.90;;;;;;5112199;28;20020;-69
2023/04/07 06:08:27;;;;;;;14.50;12.95;;;8.50;99.90;;;;;;5112217;28;20066;-69
2023/04/07 06:10:53;;;;;;;17.23;13.90;;;8.60;99.90;;;;;;5093612;28;20026;-70
2023/04/07 06:13:19;;;;;;;18.95;14.00;;;8.70;99.90;;;;;;5112472;28;20031;-69
2023/04/07 06:15:45;;;;;;;41.00;17.33;;;8.80;99.90;;;;;;5093944;28;20377;-69
2023/04/07 06:18:10;;;;;;;33.38;16.13;;;8.80;99.90;;;;;;5112020;28;20114;-69
2023/04/07 06:20:36;;;;;;;34.85;14.95;;;8.80;99.90;;;;;;5112242;28;20020;-69
2023/04/07 06:23:02;;;;;;;21.35;14.07;;;8.90;99.90;;;;;;5112288;28;20077;-69
2023/04/07 06:25:27;;;;;;;16.45;13.68;;;9.00;99.90;;;;;;5110747;28;20051;-69
2023/04/07 06:27:54;;;;;;;20.45;14.00;;;9.10;99.90;;;;;;5111441;28;20031;-70
2023/04/07 06:30:20;;;;;;;21.60;14.43;;;9.10;99.90;;;;;;5108976;28;20084;-70
2023/04/07 06:32:45;;;;;;;23.25;14.90;;;9.20;99.90;;;;;;5111440;28;20024;-69
2023/04/07 06:35:11;;;;;;;21.42;14.95;;;9.30;99.90;;;;;;5111318;28;20391;-69
2023/04/07 06:37:38;;;;;;;20.50;14.77;;;9.30;99.90;;;;;;5111546;28;20084;-70
2023/04/07 06:40:05;;;;;;;21.65;14.63;;;9.40;99.90;;;;;;5110901;28;20041;-69
2023/04/07 06:42:30;;;;;;;20.70;14.48;;;9.50;99.90;;;;;;5111385;28;20046;-68
2023/04/07 06:44:56;;;;;;;18.92;13.80;;;9.50;99.90;;;;;;5111142;28;20016;-70
2023/04/07 06:47:22;;;;;;;18.48;13.32;;;9.60;99.90;;;;;;5114933;28;20059;-69
2023/04/07 06:49:47;;;;;;;18.90;13.93;;;9.80;99.90;;;;;;5097543;28;20369;-71
2023/04/07 06:52:14;;;;;;;19.23;13.60;;;9.90;99.90;;;;;;5116010;28;20076;-69
2023/04/07 06:54:40;;;;;;;15.73;11.52;;;10.00;99.90;;;;;;5115416;28;20030;-70
2023/04/07 06:57:10;;;;;;;12.82;10.93;;;10.00;99.90;;;;;;5115431;28;20094;-70
2023/04/07 06:59:37;;;;;;;16.95;10.50;;;10.10;99.90;;;;;;5115178;28;20028;-70
2023/04/07 07:02:02;;;;;;;14.27;10.70;;;10.20;99.90;;;;;;5115192;28;20027;-73
2023/04/07 07:04:28;;;;;;;17.08;10.52;;;10.30;99.90;;;;;;5115461;28;20114;-73
2023/04/07 07:06:54;;;;;;;16.88;10.43;;;10.40;99.90;;;;;;5114972;28;20123;-71
2023/04/07 07:09:20;;;;;;;9.88;8.68;;;10.60;99.90;;;;;;5113407;28;20028;-71
2023/04/07 07:11:46;;;;;;;11.98;8.15;;;10.70;99.90;;;;;;5115010;28;20028;-71
2023/04/07 07:14:12;;;;;;;9.30;7.65;;;10.70;99.90;;;;;;5115206;28;20073;-71
2023/04/07 07:16:38;;;;;;;11.98;8.23;;;10.80;99.90;;;;;;5115267;28;20059;-71
2023/04/07 07:19:04;;;;;;;8.63;7.72;;;10.90;99.90;;;;;;5114954;28;20024;-72
2023/04/07 07:21:30;;;;;;;9.95;8.40;;;10.90;99.90;;;;;;5114834;28;20024;-71
2023/04/07 07:23:56;;;;;;;9.13;7.75;;;11.00;99.90;;;;;;5114802;28;20144;-71
2023/04/07 07:26:22;;;;;;;8.80;7.07;;;11.10;99.90;;;;;;5114995;28;20134;-71
2023/04/07 07:28:47;;;;;;;6.80;5.72;;;11.10;99.90;;;;;;5114882;28;20028;-71
2023/04/07 07:31:14;;;;;;;7.85;5.80;;;11.10;99.90;;;;;;5114810;28;20031;-71
2023/04/07 07:33:42;;;;;;;8.20;5.00;;;11.10;99.90;;;;;;5114738;28;20543;-71
2023/04/07 07:36:09;;;;;;;5.22;4.72;;;11.20;99.90;;;;;;5115112;28;20103;-72
2023/04/07 07:38:35;;;;;;;7.55;5.85;;;11.30;99.90;;;;;;5114408;28;20019;-71
2023/04/07 07:41:01;;;;;;;7.57;5.40;;;11.40;99.90;;;;;;5114579;28;20019;-71
2023/04/07 07:43:27;;;;;;;7.00;5.00;;;11.40;99.90;;;;;;5114679;28;20046;-71
2023/04/07 07:45:52;;;;;;;8.68;4.88;;;11.50;99.90;;;;;;5115034;28;20055;-71
2023/04/07 07:48:18;;;;;;;4.20;3.42;;;11.60;99.90;;;;;;5114171;28;20591;-72
2023/04/07 07:50:44;;;;;;;4.40;2.60;;;11.70;99.90;;;;;;5096359;28;20023;-71
2023/04/07 07:53:10;;;;;;;3.83;1.92;;;11.70;99.90;;;;;;5114221;28;20024;-71
2023/04/07 07:55:36;;;;;;;4.03;1.90;;;11.60;99.90;;;;;;5114492;28;20387;-71
2023/04/07 07:58:01;;;;;;;6.80;1.83;;;11.70;99.90;;;;;;5113990;28;20015;-71
2023/04/07 08:00:27;;;;;;;2.45;1.70;;;11.80;99.90;;;;;;5114320;28;20040;-71
2023/04/07 08:02:54;;;;;;;2.97;1.98;;;11.90;99.90;;;;;;5114256;28;20051;-71
2023/04/07 08:05:19;;;;;;;2.85;1.60;;;11.90;99.90;;;;;;5114181;28;20032;-71
2023/04/07 08:07:45;;;;;;;3.55;1.90;;;12.00;99.90;;;;;;5113816;28;20050;-71
2023/04/07 08:10:12;;;;;;;2.47;1.70;;;12.00;99.90;;;;;;5114148;28;20412;-71
2023/04/07 08:12:38;;;;;;;3.10;1.88;;;12.00;99.90;;;;;;5114521;28;20031;-71
2023/04/07 08:15:05;;;;;;;3.60;1.70;;;12.00;99.90;;;;;;5113973;28;20015;-71
2023/04/07 08:17:30;;;;;;;3.15;1.48;;;12.00;99.90;;;;;;5113856;28;20038;-71
2023/04/07 08:19:56;;;;;;;4.18;1.80;;;12.10;99.90;;;;;;5113860;28;20020;-71
2023/04/07 08:22:22;;;;;;;1.90;1.35;;;12.20;99.90;;;;;;5113516;28;20035;-71
2023/04/07 08:24:47;;;;;;;3.47;1.35;;;12.20;99.90;;;;;;5113738;28;20085;-70
2023/04/07 08:27:13;;;;;;;2.47;1.48;;;12.20;99.90;;;;;;5113960;28;20042;-71
2023/04/07 08:29:39;;;;;;;1.60;1.20;;;12.20;99.90;;;;;;5114025;28;20085;-71
2023/04/07 08:32:05;;;;;;;2.75;1.20;;;12.10;99.90;;;;;;5113287;28;20093;-70
2023/04/07 08:34:31;;;;;;;3.03;1.33;;;12.20;99.90;;;;;;5114015;28;20096;-70
2023/04/07 08:36:56;;;;;;;2.63;1.42;;;12.20;99.90;;;;;;5113454;28;20031;-70
2023/04/07 08:39:24;;;;;;;2.03;1.27;;;12.20;99.90;;;;;;5113504;28;20023;-69
2023/04/07 08:41:50;;;;;;;1.92;1.42;;;12.40;99.90;;;;;;5113414;28;20023;-69
2023/04/07 08:44:16;;;;;;;2.63;1.38;;;12.50;99.90;;;;;;5113503;28;20023;-69
2023/04/07 08:46:43;;;;;;;5.03;1.60;;;12.60;99.90;;;;;;5095433;28;20100;-69
2023/04/07 08:49:12;;;;;;;3.38;1.50;;;12.70;99.90;;;;;;5113136;28;20024;-68
2023/04/07 08:51:46;;;;;;;2.95;1.63;;;12.70;99.90;;;;;;5113410;28;20476;-68
2023/04/07 08:54:13;;;;;;;2.97;1.45;;;12.70;99.90;;;;;;5113488;28;20016;-68
2023/04/07 08:56:40;;;;;;;2.22;1.48;;;12.70;99.90;;;;;;5113344;28;20023;-69
2023/04/07 08:59:08;;;;;;;2.65;1.67;;;12.80;99.90;;;;;;5113135;28;20027;-69
2023/04/07 09:01:35;;;;;;;2.17;1.45;;;12.80;99.90;;;;;;5113092;28;20395;-69
2023/04/07 09:04:03;;;;;;;3.60;1.80;;;12.90;99.90;;;;;;5113188;28;20024;-69
2023/04/07 09:06:30;;;;;;;3.13;1.80;;;13.00;99.90;;;;;;5113069;28;20031;-69
2023/04/07 09:08:56;;;;;;;2.25;1.42;;;13.00;99.90;;;;;;5112230;28;20506;-69
2023/04/07 09:11:23;;;;;;;5.55;1.70;;;12.80;99.90;;;;;;5112886;28;20153;-69
2023/04/07 09:13:50;;;;;;;3.00;1.38;;;12.90;99.90;;;;;;5112901;28;20023;-69
2023/04/07 09:16:16;;;;;;;4.05;1.70;;;12.80;99.90;;;;;;5112769;28;20023;-69
2023/04/07 09:18:41;;;;;;;2.80;1.52;;;12.80;99.90;;;;;;5112573;28;20024;-69
2023/04/07 09:21:07;;;;;;;3.08;1.65;;;12.70;99.90;;;;;;5112796;28;20042;-68
2023/04/07 09:23:37;;;;;;;2.42;1.90;;;12.70;99.90;;;;;;5113142;28;20028;-69
2023/04/07 09:26:23;;;;;;;3.75;1.75;;;12.80;99.90;;;;;;5112474;28;20130;-69
2023/04/07 09:28:58;;;;;;;8.52;7.07;;;12.80;99.90;;;;;;5112594;28;20055;-69
2023/04/07 09:31:50;;;;;;;35.05;31.13;;;13.00;99.90;;;;;;5112344;28;20035;-69
2023/04/07 09:34:31;;;;;;;11.80;10.60;;;13.10;99.90;;;;;;5112227;28;20038;-68
2023/04/07 09:36:57;;;;;;;13.82;9.60;;;13.20;99.90;;;;;;5112684;28;20035;-69
2023/04/07 09:39:24;;;;;;;5.78;3.88;;;13.40;99.90;;;;;;5112508;28;20019;-70
2023/04/07 09:41:50;;;;;;;3.35;2.38;;;13.40;99.90;;;;;;5112510;28;20487;-69
2023/04/07 09:44:20;;;;;;;5.45;2.97;;;13.60;99.90;;;;;;5112697;28;20030;-69
2023/04/07 09:46:56;;;;;;;5.55;2.47;;;13.70;99.90;;;;;;5112333;28;20035;-70
2023/04/07 09:49:24;;;;;;;126.93;113.50;;;13.70;99.90;;;;;;5112566;28;20023;-69
2023/04/07 09:51:53;;;;;;;33.00;27.13;;;13.70;99.90;;;;;;5112597;28;20042;-69
2023/04/07 09:54:45;;;;;;;41.35;34.95;;;13.70;99.90;;;;;;5112419;28;20115;-70
2023/04/07 09:57:12;;;;;;;56.25;45.70;;;13.70;99.90;;;;;;5108117;28;20399;-70
2023/04/07 09:59:41;;;;;;;25.45;20.95;;;13.70;99.90;;;;;;5112461;28;20027;-69
2023/04/07 10:02:07;;;;;;;18.83;14.20;;;14.00;99.90;;;;;;5111833;28;20047;-70
2023/04/07 10:04:33;;;;;;;10.13;6.18;;;14.20;99.90;;;;;;5112501;28;20031;-70
2023/04/07 10:06:59;;;;;;;22.67;16.90;;;14.50;99.90;;;;;;5112302;28;20028;-69
2023/04/07 10:09:29;;;;;;;17.70;12.73;;;14.40;99.90;;;;;;5112210;28;20067;-69
2023/04/07 10:11:56;;;;;;;57.03;43.97;;;14.40;99.90;;;;;;5112342;28;20019;-69
2023/04/07 10:14:26;;;;;;;20.48;15.52;;;14.50;99.90;;;;;;5112161;28;20016;-70
2023/04/07 10:16:52;;;;;;;22.23;15.80;;;14.40;99.90;;;;;;5112116;28;20027;-70
2023/04/07 10:19:18;;;;;;;53.03;38.10;;;14.40;99.90;;;;;;5112680;28;20388;-70
2023/04/07 10:21:45;;;;;;;16.95;10.95;;;14.40;99.90;;;;;;5116391;28;20024;-69
2023/04/07 10:24:30;;;;;;;27.60;22.02;;;14.30;99.90;;;;;;5116086;28;20023;-68
2023/04/07 10:27:02;;;;;;;8.75;6.07;;;14.60;99.90;;;;;;5116060;28;20046;-69
2023/04/07 10:29:34;;;;;;;4.80;3.60;;;14.90;99.90;;;;;;5115596;28;20031;-74
2023/04/07 10:32:01;;;;;;;5.93;2.45;;;15.00;99.90;;;;;;5098333;28;20098;-77
2023/04/07 10:34:54;;;;;;;3.33;1.60;;;15.00;99.90;;;;;;5116339;28;20024;-77
2023/04/07 10:37:21;;;;;;;4.38;2.13;;;15.00;99.90;;;;;;5117403;28;20058;-75
2023/04/07 10:40:18;;;;;;;4.57;1.85;;;15.50;99.90;;;;;;5116152;28;20430;-76
2023/04/07 10:42:48;;;;;;;2.35;1.77;;;15.60;99.90;;;;;;5116050;28;20020;-75
2023/04/07 10:45:13;;;;;;;5.25;3.25;;;15.50;99.90;;;;;;5116712;28;20047;-76
2023/04/07 10:48:02;;;;;;;7.30;4.22;;;15.50;99.90;;;;;;5115834;28;20040;-75
2023/04/07 10:50:28;;;;;;;32.60;18.60;;;15.70;99.90;;;;;;5100149;28;20039;-76
2023/04/07 10:53:13;;;;;;;7.63;4.63;;;15.70;99.90;;;;;;5116193;28;20027;-76
2023/04/07 10:55:40;;;;;;;20.90;13.27;;;15.80;99.90;;;;;;5115878;28;20032;-76
2023/04/07 10:58:27;;;;;;;33.58;25.10;;;16.20;99.90;;;;;;5116225;28;20016;-76
2023/04/07 11:00:59;;;;;;;79.30;63.28;;;16.50;99.90;;;;;;5115478;28;20442;-76
2023/04/07 11:03:27;;;;;;;14.32;10.38;;;16.80;99.90;;;;;;5116110;28;20035;-76
2023/04/07 11:06:02;;;;;;;18.40;13.93;;;16.70;99.90;;;;;;5115764;28;20060;-76
2023/04/07 11:08:38;;;;;;;15.57;12.20;;;16.80;99.90;;;;;;5115237;28;20511;-76
2023/04/07 11:11:09;;;;;;;3.65;2.55;;;17.10;99.90;;;;;;5115273;28;20524;-75
2023/04/07 11:13:47;;;;;;;11.60;6.43;;;17.10;99.90;;;;;;5116825;28;20024;-76
2023/04/07 11:16:18;;;;;;;6.95;3.58;;;17.10;99.90;;;;;;5117804;28;20110;-75
2023/04/07 11:18:46;;;;;;;5.22;2.45;;;17.20;99.90;;;;;;5097187;28;20035;-76
2023/04/07 11:21:17;;;;;;;4.22;1.90;;;17.20;99.90;;;;;;5114353;28;20028;-76
2023/04/07 11:23:45;;;;;;;7.00;4.07;;;17.00;99.90;;;;;;5114357;28;20012;-75
2023/04/07 11:26:13;;;;;;;3.83;2.03;;;17.20;99.90;;;;;;5112688;28;20043;-76
2023/04/07 11:28:52;;;;;;;3.65;2.38;;;17.50;99.90;;;;;;5114648;28;20051;-75
2023/04/07 11:31:29;;;;;;;2.25;1.60;;;17.50;99.90;;;;;;5114759;28;20027;-75
2023/04/07 11:34:00;;;;;;;3.53;1.70;;;17.20;99.90;;;;;;5115675;28;20042;-68
2023/04/07 11:36:32;;;;;;;2.13;1.55;;;17.00;99.90;;;;;;5114776;28;20035;-70
2023/04/07 11:38:58;;;;;;;2.00;1.50;;;17.10;99.90;;;;;;5114553;28;20023;-70
2023/04/07 11:41:26;;;;;;;3.15;1.60;;;17.10;99.90;;;;;;5114615;28;20509;-69
2023/04/07 11:44:11;;;;;;;5.13;1.70;;;17.10;99.90;;;;;;5114299;28;20028;-69
2023/04/07 11:47:09;;;;;;;2.63;1.70;;;16.80;99.90;;;;;;5114578;28;20369;-70
2023/04/07 11:49:44;;;;;;;3.58;1.50;;;17.20;99.90;;;;;;5096308;28;20035;-69
2023/04/07 11:52:10;;;;;;;2.55;1.50;;;17.20;99.90;;;;;;5114510;28;20067;-69
2023/04/07 11:54:40;;;;;;;3.00;1.40;;;17.50;99.90;;;;;;5114645;28;20055;-69
2023/04/07 11:57:06;;;;;;;3.05;1.55;;;17.70;99.90;;;;;;5114835;28;20480;-70
2023/04/07 11:59:31;;;;;;;2.47;1.42;;;17.90;99.90;;;;;;5114156;28;20028;-69
2023/04/07 12:01:57;;;;;;;2.58;1.98;;;18.30;99.90;;;;;;5114514;28;20024;-69
2023/04/07 12:04:23;;;;;;;2.70;1.45;;;18.30;99.90;;;;;;5114560;28;20113;-69
2023/04/07 12:06:49;;;;;;;3.00;1.30;;;18.40;99.90;;;;;;5114115;28;20514;-69
2023/04/07 12:09:34;;;;;;;4.07;1.67;;;18.20;99.90;;;;;;5114195;28;20019;-69
2023/04/07 12:12:01;;;;;;;3.15;1.50;;;17.90;99.90;;;;;;5114277;28;20016;-69
2023/04/07 12:14:27;;;;;;;6.18;1.77;;;17.90;99.90;;;;;;5114165;28;20024;-69
2023/04/07 12:16:55;;;;;;;2.72;1.23;;;17.90;99.90;;;;;;5114414;28;20037;-69
2023/04/07 12:19:25;;;;;;;2.33;1.40;;;18.00;99.90;;;;;;5113923;28;20024;-69
2023/04/07 12:21:51;;;;;;;4.05;1.20;;;18.10;99.90;;;;;;5113932;28;20035;-69
2023/04/07 12:24:17;;;;;;;3.50;1.48;;;18.10;99.90;;;;;;5113564;28;20028;-69
2023/04/07 12:26:43;;;;;;;2.22;1.10;;;18.10;99.90;;;;;;5113508;28;20085;-69
2023/04/07 12:29:08;;;;;;;2.80;1.27;;;18.20;99.90;;;;;;5114002;28;20023;-69
2023/04/07 12:31:34;;;;;;;3.92;1.30;;;18.30;99.90;;;;;;5114081;28;20030;-70
2023/04/07 12:34:00;;;;;;;3.58;1.35;;;18.30;99.90;;;;;;5114123;28;20027;-69
2023/04/07 12:36:26;;;;;;;2.42;1.40;;;18.40;99.90;;;;;;5113481;28;20084;-69
2023/04/07 12:38:53;;;;;;;3.08;1.30;;;18.50;99.90;;;;;;5113436;28;20023;-69
2023/04/07 12:41:19;;;;;;;5.05;1.50;;;18.60;99.90;;;;;;5113633;28;20028;-69
2023/04/07 12:43:45;;;;;;;2.05;1.20;;;18.70;99.90;;;;;;5112503;28;20427;-69
2023/04/07 12:46:11;;;;;;;3.92;1.30;;;18.90;99.90;;;;;;5113429;28;20031;-69
2023/04/07 12:48:36;;;;;;;1.90;1.40;;;19.10;99.90;;;;;;5113366;28;20026;-69